09:34
Airports
History
Links
Donate
Help keep this website running!
PayPal
Bitcoin
This page is community maintained. The information is intended for PC simulator navigation or reference.
Always use approved charts for navigation.
EDMO
Oberpfaffenhofen
Oberpfaffenhofen (EDMO)
Weßling, Bayern, Germany (82234)
(C)
Lat/Lng:48° 4' 53.83" N / 11° 17' 0.3" E
48.08162 / 11.283418
Elevation:1947'ft / 593mMSL
ID / ICAO:EDMO
Runways:1
Longest:04-22
Asphalt 2,285m / 7,498ft
Controlled:Yes
METAR09:20 GMT 2017-10-24
Altimeter: 30.33
Visibility: 6.2 statute miles
Wind: 7 knots (from 250°)
Temp: 10°c / 50°f
Humidity: 81.6%

METAR: EDMO 240920Z 25007KT 9999 FEW016 SCT058 10/07 Q1027

(Powered by phpweather)
Airport Radio Frequencies
Tower: 126.95, 119.55, 122.1
Approach: 120.77, 127.95
Nearby VORs <50NM
Nearby NDBs
Runway 04 / 22
Dimensions:2285.3 x 44.8m 7498' x 147'ft
Surface:Asphalt
Edge Lights:High intensity
Runway 04 [A]Runway 22 [B]
Heading:042°TH 222°TH
Lat:
Lng:
48° 4' 26.53"N
11° 16' 23.03"E
48° 5' 21.13"N
11° 17' 37.58"E
ALS:MALS
User Notes and Comments
48° 4' 53.83" N / 11° 17' 0.3" E
Distance To
Airport ID:
Nearby Airports
(U) FURSTENFELDBRUCK 8.6 NM
ETSF ( WX ) N 355°
(C) Jesenwang 9.7 NM
EDMJ NW 311°
(C) Landsberg Lech 17.4 NM
ETSA ( WX ) W 267°
(C) LECHFELD 20.8 NM
ETSL ( WX ) WNW 290°
(C) Augsburg 28.6 NM
EDMA ( WX ) NW 325°
(C) Muenchen Franz-Josef Strauss 29.8 NM
EDDM ( WX ) NE 50°
(C) Kaufbeuren 34.4 NM
ED08 WSW 243°
VFR Chart
Flight Planning at SkyVector.com